Time;durP1;ratioP1;P1;durP2;ratioP2;P2;SDS_P1;SDS_P2;PMS_P1;PMS_P2;Temp;Humidity;BMP_temperature;BMP_pressure;BME280_temperature;BME280_humidity;BME280_pressure;Samples;Min_cycle;Max_cycle;Signal;HPM_P1;HPM_P2
2023/07/02 00:00:28;;;;;;;20.92;5.15;;;13.60;99.90;;;;;;5036646;28;20056;-90
2023/07/02 00:02:54;;;;;;;20.42;5.32;;;13.50;99.90;;;;;;5036474;28;20017;-90
2023/07/02 00:05:20;;;;;;;21.33;5.13;;;13.50;99.90;;;;;;5054436;28;20033;-89
2023/07/02 00:07:45;;;;;;;23.50;6.18;;;13.50;99.90;;;;;;5037278;28;20024;-89
2023/07/02 00:10:11;;;;;;;23.17;5.72;;;13.50;99.90;;;;;;5051867;28;20024;-89
2023/07/02 00:12:37;;;;;;;19.48;4.72;;;13.50;99.90;;;;;;5057638;28;20067;-89
2023/07/02 00:15:03;;;;;;;26.20;5.13;;;13.50;99.90;;;;;;5050861;28;20021;-89
2023/07/02 00:17:29;;;;;;;24.38;5.85;;;13.50;99.90;;;;;;5036651;28;20036;-89
2023/07/02 00:19:55;;;;;;;19.75;5.25;;;13.50;99.90;;;;;;5037847;28;20017;-90
2023/07/02 00:22:21;;;;;;;20.92;5.13;;;13.50;99.90;;;;;;5042905;28;20033;-89
2023/07/02 00:24:46;;;;;;;19.60;5.00;;;13.50;99.90;;;;;;5037128;28;20036;-88
2023/07/02 00:27:12;;;;;;;21.10;5.00;;;13.50;99.90;;;;;;5063158;28;20031;-88
2023/07/02 00:29:38;;;;;;;27.42;4.57;;;13.50;99.90;;;;;;5058856;28;20096;-88
2023/07/02 00:32:04;;;;;;;19.83;5.15;;;13.50;99.90;;;;;;5040470;28;20025;-88
2023/07/02 00:34:30;;;;;;;18.15;4.97;;;13.40;99.90;;;;;;5047498;28;20025;-88
2023/07/02 00:36:55;;;;;;;14.02;3.97;;;13.40;99.90;;;;;;5046578;28;20016;-89
2023/07/02 00:39:21;;;;;;;38.65;6.20;;;13.40;99.90;;;;;;5043013;28;20029;-89
2023/07/02 00:41:47;;;;;;;19.77;4.80;;;13.40;99.90;;;;;;5046888;28;20519;-89
2023/07/02 00:44:13;;;;;;;22.48;5.80;;;13.40;99.90;;;;;;5041438;28;20036;-88
2023/07/02 00:46:39;;;;;;;17.20;5.03;;;13.40;99.90;;;;;;5058409;28;20029;-88
2023/07/02 00:49:05;;;;;;;19.30;5.20;;;13.40;99.90;;;;;;5038043;28;20021;-89
2023/07/02 00:51:31;;;;;;;14.50;3.83;;;13.40;99.90;;;;;;5037399;28;20037;-90
2023/07/02 00:53:58;;;;;;;17.25;3.85;;;13.40;99.90;;;;;;5035577;28;20017;-90
2023/07/02 00:56:26;;;;;;;17.45;4.50;;;13.30;99.90;;;;;;5036810;28;20122;-89
2023/07/02 00:58:58;;;;;;;18.45;4.65;;;13.30;99.90;;;;;;5043019;28;20375;-90
2023/07/02 01:01:25;;;;;;;17.77;4.43;;;13.30;99.90;;;;;;5038211;28;20132;-89
2023/07/02 01:04:02;;;;;;;15.73;4.50;;;13.20;99.90;;;;;;5043124;28;20012;-88
2023/07/02 01:06:35;;;;;;;17.02;4.43;;;13.20;99.90;;;;;;5039049;28;20059;-90
2023/07/02 01:09:05;;;;;;;18.67;4.78;;;13.20;99.90;;;;;;5038366;28;20078;-88
2023/07/02 01:11:34;;;;;;;19.23;5.28;;;13.20;99.90;;;;;;5038021;28;20051;-90
2023/07/02 01:14:05;;;;;;;18.05;4.28;;;13.20;99.90;;;;;;5036979;28;20021;-89
2023/07/02 01:16:32;;;;;;;;;;;13.20;99.90;;;;;;5037496;28;20021;-89
2023/07/02 01:19:03;;;;;;;16.42;4.40;;;13.20;99.90;;;;;;5053704;28;19913;-89
2023/07/02 01:21:29;;;;;;;16.58;5.15;;;13.20;99.90;;;;;;5032902;28;20037;-89
2023/07/02 01:23:54;;;;;;;22.42;5.72;;;13.20;99.90;;;;;;5053217;28;20033;-90
2023/07/02 01:26:20;;;;;;;18.35;4.53;;;13.20;99.90;;;;;;5053429;28;20025;-89
2023/07/02 01:28:46;;;;;;;22.55;4.88;;;13.20;99.90;;;;;;5052973;28;20036;-89
2023/07/02 01:31:12;;;;;;;23.48;5.53;;;13.20;99.90;;;;;;5053457;28;20211;-90
2023/07/02 01:33:37;;;;;;;19.60;4.82;;;13.20;99.90;;;;;;5035326;28;20107;-89
2023/07/02 01:36:03;;;;;;;24.58;6.40;;;13.20;99.90;;;;;;5035156;28;20035;-89
2023/07/02 01:38:29;;;;;;;23.13;5.07;;;13.20;99.90;;;;;;5035514;28;20025;-90
2023/07/02 01:40:55;;;;;;;23.02;5.57;;;13.10;99.90;;;;;;5052814;28;20040;-89
2023/07/02 01:43:20;;;;;;;18.70;4.70;;;13.20;99.90;;;;;;5045297;28;20043;-89
2023/07/02 01:45:46;;;;;;;19.98;5.63;;;13.10;99.90;;;;;;5053155;28;20159;-91
2023/07/02 01:48:12;;;;;;;21.73;4.95;;;13.10;99.90;;;;;;5037666;28;20021;-88
2023/07/02 01:50:37;;;;;;;23.40;5.85;;;13.10;99.90;;;;;;5073389;28;20029;-90
2023/07/02 01:53:03;;;;;;;23.25;4.80;;;13.10;99.90;;;;;;5070533;28;20036;-89
2023/07/02 01:55:28;;;;;;;18.02;4.53;;;13.10;99.90;;;;;;5058276;28;20060;-89
2023/07/02 01:57:54;;;;;;;17.92;4.82;;;13.10;99.90;;;;;;5052381;28;20060;-89
2023/07/02 02:00:20;;;;;;;16.83;5.03;;;13.10;99.90;;;;;;5052080;28;20033;-88
2023/07/02 02:02:45;;;;;;;19.20;4.65;;;13.10;99.90;;;;;;5052351;28;20460;-89
2023/07/02 02:05:11;;;;;;;22.27;5.07;;;13.10;99.90;;;;;;5051736;28;20117;-89
2023/07/02 02:07:37;;;;;;;19.45;4.80;;;13.10;99.90;;;;;;5052641;28;20464;-89
2023/07/02 02:10:04;;;;;;;24.70;4.60;;;13.10;99.90;;;;;;5055487;28;20087;-90
2023/07/02 02:12:30;;;;;;;21.10;5.35;;;13.10;99.90;;;;;;5055736;28;20055;-89
2023/07/02 02:14:56;;;;;;;22.15;4.88;;;13.10;99.90;;;;;;5055355;28;20025;-89
2023/07/02 02:17:23;;;;;;;20.75;4.10;;;13.10;99.90;;;;;;5055434;28;20055;-89
2023/07/02 02:19:49;;;;;;;19.77;4.88;;;13.00;99.90;;;;;;5052659;28;20557;-89
2023/07/02 02:22:15;;;;;;;16.88;5.13;;;13.00;99.90;;;;;;5055046;28;20484;-90
2023/07/02 02:24:42;;;;;;;12.30;4.07;;;13.00;99.90;;;;;;5056358;28;20041;-89
2023/07/02 02:27:08;;;;;;;20.05;4.85;;;13.00;99.90;;;;;;5052581;28;20017;-89
2023/07/02 02:29:34;;;;;;;22.05;4.43;;;13.00;99.90;;;;;;5056264;28;20017;-89
2023/07/02 02:32:00;;;;;;;20.23;4.28;;;13.00;99.90;;;;;;5055324;28;20057;-89
2023/07/02 02:34:25;;;;;;;14.60;4.45;;;13.00;99.90;;;;;;5054945;28;20017;-89
2023/07/02 02:36:51;;;;;;;14.80;4.22;;;13.00;99.90;;;;;;5056149;28;20082;-88
2023/07/02 02:39:17;;;;;;;15.73;4.10;;;12.90;99.90;;;;;;5055036;28;20491;-88
2023/07/02 02:41:42;;;;;;;15.13;3.70;;;13.00;99.90;;;;;;5056301;28;20021;-89
2023/07/02 02:44:08;;;;;;;15.65;4.32;;;13.00;99.90;;;;;;5055890;28;20032;-89
2023/07/02 02:46:33;;;;;;;17.60;3.90;;;13.00;99.90;;;;;;5054702;28;20162;-89
2023/07/02 02:48:59;;;;;;;15.57;4.68;;;13.00;99.90;;;;;;5055763;28;20082;-88
2023/07/02 02:51:25;;;;;;;14.57;3.88;;;13.00;99.90;;;;;;5054370;28;20116;-88
2023/07/02 02:53:50;;;;;;;17.45;4.93;;;13.00;99.90;;;;;;5055490;28;20020;-88
2023/07/02 02:56:16;;;;;;;23.20;5.25;;;13.00;99.90;;;;;;5055731;28;20025;-89
2023/07/02 02:58:42;;;;;;;14.88;4.20;;;13.00;99.90;;;;;;5054416;28;20035;-88
2023/07/02 03:01:10;;;;;;;18.35;5.28;;;13.00;99.90;;;;;;5054034;28;20091;-89
2023/07/02 03:03:44;;;;;;;18.55;4.63;;;12.90;99.90;;;;;;5054403;28;20112;-89
2023/07/02 03:06:11;;;;;;;16.83;4.65;;;12.90;99.90;;;;;;5048986;28;20369;-88
2023/07/02 03:08:36;;;;;;;16.98;5.05;;;12.90;99.90;;;;;;5055647;28;20052;-88
2023/07/02 03:11:02;;;;;;;16.80;5.03;;;12.90;99.90;;;;;;5054315;28;20013;-88
2023/07/02 03:13:27;;;;;;;25.42;6.63;;;12.90;99.90;;;;;;5051566;28;20027;-89
2023/07/02 03:15:53;;;;;;;21.95;4.53;;;12.90;99.90;;;;;;5054101;28;20107;-88
2023/07/02 03:18:19;;;;;;;18.15;4.80;;;12.90;99.90;;;;;;5054027;28;20469;-88
2023/07/02 03:20:44;;;;;;;13.68;4.25;;;12.80;99.90;;;;;;5054783;28;20025;-88
2023/07/02 03:23:10;;;;;;;26.63;5.32;;;12.80;99.90;;;;;;5054958;28;20087;-88
2023/07/02 03:25:36;;;;;;;22.42;5.22;;;12.80;99.90;;;;;;5066561;28;20021;-89
2023/07/02 03:28:01;;;;;;;16.45;4.93;;;12.90;99.90;;;;;;5072838;28;20028;-88
2023/07/02 03:30:27;;;;;;;19.80;4.40;;;12.90;99.90;;;;;;5071203;28;20021;-88
2023/07/02 03:32:52;;;;;;;16.85;4.95;;;12.90;99.90;;;;;;5068094;28;20123;-89
2023/07/02 03:35:18;;;;;;;17.05;5.07;;;12.90;99.90;;;;;;5054305;28;20027;-88
2023/07/02 03:37:45;;;;;;;20.13;5.63;;;12.90;99.90;;;;;;5054270;28;20056;-88
2023/07/02 03:40:11;;;;;;;15.88;5.47;;;12.90;99.90;;;;;;5053670;28;20029;-88
2023/07/02 03:42:37;;;;;;;19.80;4.68;;;12.90;99.90;;;;;;5054839;28;20020;-89
2023/07/02 03:45:03;;;;;;;20.42;5.30;;;12.90;99.90;;;;;;5054242;28;20025;-89
2023/07/02 03:47:29;;;;;;;18.00;5.10;;;12.90;99.90;;;;;;5054349;28;20226;-89
2023/07/02 03:49:54;;;;;;;17.40;5.85;;;12.80;99.90;;;;;;5053753;28;20017;-88
2023/07/02 03:52:20;;;;;;;23.23;4.35;;;12.80;99.90;;;;;;5055927;28;20063;-88
2023/07/02 03:54:46;;;;;;;24.27;5.85;;;12.80;99.90;;;;;;5056903;28;20067;-88
2023/07/02 03:57:11;;;;;;;18.25;5.13;;;12.80;99.90;;;;;;5053525;28;20029;-88
2023/07/02 03:59:38;;;;;;;16.35;4.18;;;12.70;99.90;;;;;;5054393;28;20024;-89
2023/07/02 04:02:04;;;;;;;18.77;4.30;;;12.70;99.90;;;;;;5054426;28;20049;-88
2023/07/02 04:04:29;;;;;;;17.73;4.32;;;12.70;99.90;;;;;;5053700;28;20028;-88
2023/07/02 04:06:55;;;;;;;17.40;4.65;;;12.80;99.90;;;;;;5062338;28;20464;-88
2023/07/02 04:09:21;;;;;;;23.23;5.20;;;12.80;99.90;;;;;;5066031;28;20547;-88
2023/07/02 04:11:46;;;;;;;15.80;4.63;;;12.80;99.90;;;;;;5062074;28;20045;-88
2023/07/02 04:14:12;;;;;;;17.70;4.07;;;12.80;99.90;;;;;;5061331;28;20032;-88
2023/07/02 04:16:37;;;;;;;15.82;4.55;;;12.80;99.90;;;;;;5057290;28;20498;-89
2023/07/02 04:19:03;;;;;;;20.63;4.82;;;12.70;99.90;;;;;;5055970;28;20119;-87
2023/07/02 04:21:29;;;;;;;17.73;4.95;;;12.80;99.90;;;;;;5056904;28;20128;-89
2023/07/02 04:23:54;;;;;;;19.23;5.20;;;12.80;99.90;;;;;;5055977;28;20103;-89
2023/07/02 04:26:20;;;;;;;15.73;4.15;;;12.80;99.90;;;;;;5053831;28;20028;-89
2023/07/02 04:28:46;;;;;;;20.80;4.97;;;12.80;99.90;;;;;;5054694;28;20519;-89
2023/07/02 04:31:11;;;;;;;18.80;4.43;;;12.80;99.90;;;;;;5054064;28;20036;-88
2023/07/02 04:33:37;;;;;;;22.23;4.95;;;12.80;99.90;;;;;;5053898;28;20050;-88
2023/07/02 04:36:03;;;;;;;17.17;4.70;;;12.80;99.90;;;;;;5056568;28;20033;-89
2023/07/02 04:38:29;;;;;;;17.52;4.10;;;12.90;99.90;;;;;;5066965;28;20435;-89
2023/07/02 04:40:57;;;;;;;16.83;4.40;;;12.90;99.90;;;;;;5068862;28;20017;-89
2023/07/02 04:43:23;;;;;;;15.88;3.85;;;12.90;99.90;;;;;;5065545;28;20075;-89
2023/07/02 04:45:49;;;;;;;14.38;4.45;;;12.90;99.90;;;;;;5068903;28;20048;-87
2023/07/02 04:48:14;;;;;;;14.10;4.13;;;12.90;99.90;;;;;;5064926;28;20029;-88
2023/07/02 04:50:41;;;;;;;17.63;4.38;;;12.90;99.90;;;;;;5060907;28;20127;-89
2023/07/02 04:53:08;;;;;;;14.40;4.05;;;12.90;99.90;;;;;;5063189;28;20049;-89
2023/07/02 04:55:34;;;;;;;17.70;4.38;;;12.90;99.90;;;;;;5062406;28;20051;-89
2023/07/02 04:57:59;;;;;;;19.85;4.53;;;12.90;99.90;;;;;;5062492;28;20094;-89
2023/07/02 05:00:25;;;;;;;20.30;6.20;;;12.90;99.90;;;;;;5055636;28;20045;-89
2023/07/02 05:02:51;;;;;;;19.25;4.68;;;12.90;99.90;;;;;;5056271;28;20511;-89
2023/07/02 05:05:17;;;;;;;14.38;3.85;;;12.90;99.90;;;;;;5058129;28;20021;-89
2023/07/02 05:07:43;;;;;;;14.52;4.13;;;13.00;99.90;;;;;;5075266;28;20025;-87
2023/07/02 05:10:09;;;;;;;21.13;4.18;;;13.00;99.90;;;;;;5074828;28;20059;-89
2023/07/02 05:12:35;;;;;;;21.90;4.78;;;13.00;99.90;;;;;;5066992;28;20087;-88
2023/07/02 05:15:01;;;;;;;14.55;3.97;;;13.00;99.90;;;;;;5052931;28;20157;-88
2023/07/02 05:17:26;;;;;;;12.23;4.15;;;13.00;99.90;;;;;;5053989;28;20029;-89
2023/07/02 05:19:52;;;;;;;15.55;3.92;;;13.00;99.90;;;;;;5052825;28;20032;-89
2023/07/02 05:22:19;;;;;;;14.15;3.75;;;13.00;99.90;;;;;;5054069;28;20029;-88
2023/07/02 05:24:46;;;;;;;15.43;4.80;;;13.00;99.90;;;;;;5054227;28;20025;-89
2023/07/02 05:27:11;;;;;;;20.75;4.70;;;13.00;99.90;;;;;;5053798;28;20036;-88
2023/07/02 05:29:37;;;;;;;14.55;4.03;;;13.00;99.90;;;;;;5053784;28;20475;-88
2023/07/02 05:32:03;;;;;;;15.75;5.00;;;13.00;99.90;;;;;;5052591;28;20112;-89
2023/07/02 05:34:29;;;;;;;18.08;5.43;;;12.90;99.90;;;;;;5036127;28;20057;-88
2023/07/02 05:36:54;;;;;;;22.83;7.15;;;12.90;99.90;;;;;;5036493;28;20028;-88
2023/07/02 05:39:21;;;;;;;17.27;6.60;;;12.80;99.90;;;;;;5038478;28;20089;-89
2023/07/02 05:41:47;;;;;;;21.65;6.18;;;12.80;99.90;;;;;;5055574;28;20017;-88
2023/07/02 05:44:12;;;;;;;20.08;7.00;;;12.70;99.90;;;;;;5051471;28;20396;-88
2023/07/02 05:46:39;;;;;;;18.35;6.70;;;12.70;99.90;;;;;;5035363;28;20025;-88
2023/07/02 05:49:05;;;;;;;25.70;6.78;;;12.70;99.90;;;;;;5053556;28;20060;-88
2023/07/02 05:51:31;;;;;;;19.77;6.72;;;12.60;99.90;;;;;;5035600;28;20044;-88
2023/07/02 05:53:57;;;;;;;17.05;6.60;;;12.60;99.90;;;;;;5053343;28;20033;-88
2023/07/02 05:56:23;;;;;;;22.10;7.20;;;12.50;99.90;;;;;;5035568;28;20024;-87
2023/07/02 05:58:50;;;;;;;20.42;7.07;;;12.50;99.90;;;;;;5035138;28;20361;-88
2023/07/02 06:01:15;;;;;;;20.40;7.28;;;12.50;99.90;;;;;;5035058;28;20499;-87
2023/07/02 06:03:42;;;;;;;20.80;7.55;;;12.50;99.90;;;;;;5035200;28;20038;-88
2023/07/02 06:06:08;;;;;;;22.20;7.78;;;12.50;99.90;;;;;;5035402;28;20035;-87
2023/07/02 06:08:34;;;;;;;22.42;7.78;;;12.50;99.90;;;;;;5052721;28;20107;-88
2023/07/02 06:11:00;;;;;;;14.95;6.03;;;12.50;99.90;;;;;;5051581;28;20124;-87
2023/07/02 06:13:25;;;;;;;14.93;7.25;;;12.50;99.90;;;;;;5034355;28;20096;-87
2023/07/02 06:15:51;;;;;;;22.95;7.72;;;12.50;99.90;;;;;;5052950;28;20028;-87
2023/07/02 06:18:17;;;;;;;24.73;7.53;;;12.60;99.90;;;;;;5051620;28;20036;-88
2023/07/02 06:20:43;;;;;;;20.52;6.93;;;12.60;99.90;;;;;;5052885;28;20025;-87
2023/07/02 06:23:08;;;;;;;22.80;6.63;;;12.60;99.90;;;;;;5035360;28;20131;-88
2023/07/02 06:25:34;;;;;;;19.60;6.60;;;12.60;99.90;;;;;;5035071;28;20125;-88
2023/07/02 06:28:00;;;;;;;19.23;6.28;;;12.60;99.90;;;;;;5036129;28;20029;-88
2023/07/02 06:30:26;;;;;;;21.67;6.43;;;12.60;99.90;;;;;;5035407;28;20029;-87
2023/07/02 06:32:53;;;;;;;17.35;5.65;;;12.50;99.90;;;;;;5053265;28;20082;-87
2023/07/02 06:35:19;;;;;;;18.85;5.85;;;12.50;99.90;;;;;;5053050;28;20025;-88
2023/07/02 06:37:45;;;;;;;18.55;5.03;;;12.40;99.90;;;;;;5052490;28;20183;-88
2023/07/02 06:40:11;;;;;;;21.50;4.97;;;12.50;99.90;;;;;;5036056;28;20064;-88
2023/07/02 06:42:37;;;;;;;23.02;5.15;;;12.50;99.90;;;;;;5053821;28;20024;-88
2023/07/02 06:45:03;;;;;;;21.17;5.05;;;12.50;99.90;;;;;;5036159;28;20024;-88
2023/07/02 06:47:29;;;;;;;23.08;4.85;;;12.50;99.90;;;;;;5051055;28;20124;-88
2023/07/02 06:49:55;;;;;;;17.42;4.45;;;12.50;99.90;;;;;;5068365;28;20040;-88
2023/07/02 06:52:20;;;;;;;19.20;5.22;;;12.50;99.90;;;;;;5048622;28;20041;-88
2023/07/02 06:54:46;;;;;;;17.40;5.45;;;12.60;99.90;;;;;;5036664;28;20051;-89
2023/07/02 06:57:13;;;;;;;18.63;5.20;;;12.60;99.90;;;;;;5053343;28;20551;-89
2023/07/02 06:59:38;;;;;;;20.05;5.65;;;12.60;99.90;;;;;;5039159;28;20094;-91
2023/07/02 07:02:04;;;;;;;26.45;5.50;;;12.60;99.90;;;;;;5056023;28;20041;-89
2023/07/02 07:04:34;;;;;;;28.70;6.13;;;12.70;99.90;;;;;;5057304;28;20070;-89
2023/07/02 07:07:03;;;;;;;21.73;5.40;;;12.80;99.90;;;;;;5039209;28;20036;-90
2023/07/02 07:09:29;;;;;;;22.50;6.72;;;12.90;99.90;;;;;;5056539;28;20024;-88
2023/07/02 07:11:55;;;;;;;20.08;7.00;;;12.90;99.90;;;;;;5038967;28;20060;-88
2023/07/02 07:14:20;;;;;;;29.33;5.80;;;12.90;99.90;;;;;;5040150;28;20032;-88
2023/07/02 07:16:46;;;;;;;22.50;5.68;;;13.00;99.90;;;;;;5068785;28;20032;-87
2023/07/02 07:19:12;;;;;;;21.52;5.70;;;12.90;99.90;;;;;;5057945;28;20032;-88
2023/07/02 07:21:38;;;;;;;22.23;5.43;;;12.90;99.90;;;;;;5058869;28;20543;-89
2023/07/02 07:24:04;;;;;;;19.75;5.40;;;12.80;99.90;;;;;;5054208;28;20013;-87
2023/07/02 07:26:30;;;;;;;22.27;6.00;;;12.80;99.90;;;;;;5064504;28;20037;-89
2023/07/02 07:28:56;;;;;;;19.15;4.75;;;12.70;99.90;;;;;;5061377;28;20025;-90
2023/07/02 07:31:21;;;;;;;21.42;4.75;;;12.70;99.90;;;;;;5059708;28;20025;-89
2023/07/02 07:33:47;;;;;;;21.65;5.35;;;12.70;99.90;;;;;;5056047;28;20074;-89
2023/07/02 07:36:13;;;;;;;24.10;5.20;;;12.70;99.90;;;;;;5056458;28;20091;-89
2023/07/02 07:38:39;;;;;;;24.02;5.72;;;12.70;99.90;;;;;;5038232;28;20123;-89
2023/07/02 07:41:05;;;;;;;24.70;5.40;;;12.70;99.90;;;;;;5056774;28;20109;-89
2023/07/02 07:43:31;;;;;;;21.38;5.22;;;12.60;99.90;;;;;;5055836;28;20088;-90
2023/07/02 07:45:56;;;;;;;17.33;4.28;;;12.70;99.90;;;;;;5038212;28;20021;-89
2023/07/02 07:48:22;;;;;;;24.38;4.82;;;12.70;99.90;;;;;;5037984;28;20431;-90
2023/07/02 07:50:48;;;;;;;20.17;4.43;;;12.70;99.90;;;;;;5038292;28;20032;-89
2023/07/02 07:53:14;;;;;;;18.35;4.07;;;12.70;99.90;;;;;;5037640;28;20029;-89
2023/07/02 07:55:40;;;;;;;26.05;4.65;;;12.70;99.90;;;;;;5037830;28;20035;-89
2023/07/02 07:58:05;;;;;;;15.13;4.57;;;12.80;99.90;;;;;;5037368;28;20025;-88
2023/07/02 08:00:31;;;;;;;26.63;4.82;;;12.80;99.90;;;;;;5054148;28;20458;-88
2023/07/02 08:02:56;;;;;;;19.92;4.40;;;12.80;99.90;;;;;;5055184;28;20100;-90
2023/07/02 08:05:23;;;;;;;20.70;4.72;;;12.90;99.90;;;;;;5055755;28;20048;-90
2023/07/02 08:07:48;;;;;;;23.40;5.25;;;13.10;99.90;;;;;;5054045;28;20094;-90
2023/07/02 08:10:14;;;;;;;18.98;3.78;;;13.20;99.90;;;;;;5037421;28;20075;-88
2023/07/02 08:12:40;;;;;;;25.55;4.70;;;13.30;99.90;;;;;;5038244;28;20044;-89
2023/07/02 08:15:06;;;;;;;20.25;4.93;;;13.40;99.90;;;;;;5038067;28;20079;-89
2023/07/02 08:17:32;;;;;;;17.42;3.90;;;13.50;99.90;;;;;;5037773;28;20025;-88
2023/07/02 08:19:58;;;;;;;18.25;4.03;;;13.50;99.90;;;;;;5038750;28;20021;-88
2023/07/02 08:22:23;;;;;;;21.13;4.70;;;13.50;99.90;;;;;;5048847;28;20053;-88
2023/07/02 08:24:49;;;;;;;17.58;3.47;;;13.50;99.90;;;;;;5054532;28;20063;-87
2023/07/02 08:27:19;;;;;;;18.60;3.88;;;13.50;99.90;;;;;;5049069;28;20036;-86
2023/07/02 08:29:47;;;;;;;13.68;2.92;;;13.40;99.90;;;;;;5047903;28;20029;-91
2023/07/02 08:32:13;;;;;;;16.38;3.40;;;13.40;99.90;;;;;;5030201;28;20040;-89
2023/07/02 08:34:39;;;;;;;16.58;3.35;;;13.50;99.90;;;;;;5027803;28;20021;-89
2023/07/02 08:37:05;;;;;;;18.23;3.08;;;13.50;99.90;;;;;;5028474;28;20052;-89
2023/07/02 08:39:30;;;;;;;20.20;3.92;;;13.60;99.90;;;;;;5027284;28;20151;-89
2023/07/02 08:41:56;;;;;;;27.45;4.43;;;13.60;99.90;;;;;;5045983;28;20021;-88
2023/07/02 08:44:22;;;;;;;19.50;3.55;;;13.70;99.90;;;;;;5028452;28;20455;-88
2023/07/02 08:46:53;;;;;;;24.25;3.60;;;13.70;99.90;;;;;;5046698;28;20074;-88
2023/07/02 08:49:18;;;;;;;;;;;13.70;99.90;;;;;;5025221;28;20030;-89
2023/07/02 08:51:45;;;;;;;23.98;4.55;;;13.60;99.90;;;;;;5044990;28;19920;-88
2023/07/02 08:54:11;;;;;;;16.00;3.40;;;13.60;99.90;;;;;;5049039;28;20105;-89
2023/07/02 08:56:39;;;;;;;13.82;3.03;;;13.50;99.90;;;;;;5033703;28;20029;-91
2023/07/02 08:59:07;;;;;;;15.68;3.30;;;13.50;99.90;;;;;;5031538;28;20021;-90
2023/07/02 09:01:33;;;;;;;18.52;3.78;;;13.50;99.90;;;;;;5059934;28;20056;-91
2023/07/02 09:04:01;;;;;;;18.75;2.90;;;13.70;99.90;;;;;;5037070;28;20085;-91
2023/07/02 09:06:27;;;;;;;16.95;3.90;;;13.80;99.90;;;;;;5043712;28;20025;-91
2023/07/02 09:08:53;;;;;;;21.45;3.63;;;13.90;99.90;;;;;;5042183;28;20031;-91
2023/07/02 09:11:19;;;;;;;13.90;3.05;;;14.10;99.90;;;;;;5040839;28;20040;-88
2023/07/02 09:13:48;;;;;;;18.08;3.40;;;14.10;99.90;;;;;;5039964;28;20080;-90
2023/07/02 09:16:36;;;;;;;13.75;2.78;;;14.10;99.90;;;;;;5035264;28;20038;-88
2023/07/02 09:19:08;;;;;;;16.23;3.50;;;14.10;99.90;;;;;;5036923;28;20028;-91
2023/07/02 09:21:40;;;;;;;18.60;3.70;;;14.20;99.90;;;;;;5029264;28;20025;-90
2023/07/02 09:24:13;;;;;;;15.38;3.45;;;14.20;99.90;;;;;;5052932;28;20033;-89
2023/07/02 09:26:53;;;;;;;12.40;2.60;;;14.40;99.90;;;;;;5025805;28;20034;-90
2023/07/02 09:29:29;;;;;;;17.15;2.75;;;14.60;99.90;;;;;;5023351;28;20063;-91
2023/07/02 09:31:57;;;;;;;16.13;2.97;;;14.80;99.90;;;;;;5029185;28;20041;-90
2023/07/02 09:34:33;;;;;;;13.68;2.42;;;15.10;99.90;;;;;;5021630;28;20017;-89
2023/07/02 09:37:00;;;;;;;13.85;3.03;;;15.40;99.90;;;;;;5025080;28;20032;-90
2023/07/02 09:39:31;;;;;;;13.88;3.13;;;15.60;99.90;;;;;;5032734;28;20030;-88
2023/07/02 09:42:04;;;;;;;12.45;2.28;;;15.70;99.90;;;;;;5030196;28;20502;-90
2023/07/02 09:44:32;;;;;;;8.55;2.03;;;15.70;99.90;;;;;;5045055;28;20024;-88
2023/07/02 09:47:05;;;;;;;15.95;2.65;;;15.60;99.90;;;;;;5039096;28;20040;-90
2023/07/02 09:49:36;;;;;;;8.57;1.92;;;15.50;99.90;;;;;;5028293;28;20021;-90
2023/07/02 09:52:07;;;;;;;9.82;2.42;;;15.40;99.90;;;;;;5023923;28;20033;-88
2023/07/02 09:54:33;;;;;;;13.85;2.70;;;15.30;99.90;;;;;;5041607;28;20018;-89
2023/07/02 09:57:00;;;;;;;7.53;1.80;;;15.20;99.90;;;;;;5029934;28;20356;-89
2023/07/02 09:59:25;;;;;;;11.90;2.55;;;15.00;99.70;;;;;;5045675;28;20013;-89
2023/07/02 10:01:51;;;;;;;9.85;2.42;;;14.90;99.50;;;;;;5046321;28;20043;-89
2023/07/02 10:04:19;;;;;;;4.20;0.90;;;14.80;99.40;;;;;;5045027;28;20009;-89
2023/07/02 10:06:52;;;;;;;7.63;1.73;;;14.70;98.70;;;;;;5033636;28;20033;-89
2023/07/02 10:09:19;;;;;;;5.53;1.10;;;14.60;98.70;;;;;;5041452;28;20109;-90
2023/07/02 10:11:46;;;;;;;10.85;1.52;;;14.50;98.60;;;;;;5027685;28;20439;-89
2023/07/02 10:14:12;;;;;;;8.38;1.77;;;14.60;98.80;;;;;;5025312;28;20026;-91
2023/07/02 10:16:54;;;;;;;4.35;1.48;;;14.70;98.70;;;;;;5026998;28;20373;-91
2023/07/02 10:19:20;;;;;;;7.78;1.98;;;14.80;98.60;;;;;;5026894;28;20056;-90
2023/07/02 10:21:49;;;;;;;10.07;1.88;;;14.90;98.90;;;;;;5023570;28;20499;-91
2023/07/02 10:24:16;;;;;;;10.75;2.00;;;14.90;98.80;;;;;;5025553;28;20032;-91
2023/07/02 10:26:54;;;;;;;8.32;2.00;;;15.00;98.90;;;;;;5045156;28;20024;-89
2023/07/02 10:29:20;;;;;;;10.48;2.03;;;15.40;99.20;;;;;;5036977;28;20040;-87
2023/07/02 10:31:50;;;;;;;6.90;1.52;;;15.70;98.60;;;;;;5033620;28;20097;-87
2023/07/02 10:34:27;;;;;;;6.53;2.13;;;16.00;97.70;;;;;;5028338;28;20048;-89
2023/07/02 10:36:56;;;;;;;7.32;1.60;;;16.20;96.70;;;;;;5053336;28;20052;-88
2023/07/02 10:39:22;;;;;;;6.88;1.83;;;16.40;95.50;;;;;;5038378;28;20017;-90
2023/07/02 10:41:49;;;;;;;13.48;2.15;;;16.40;94.10;;;;;;5031201;28;20028;-89
2023/07/02 10:44:15;;;;;;;8.93;2.40;;;16.50;92.70;;;;;;5038413;28;20085;-91
2023/07/02 10:46:44;;;;;;;7.90;1.80;;;16.50;92.30;;;;;;5038429;28;20116;-91
2023/07/02 10:49:11;;;;;;;7.85;1.58;;;16.50;91.90;;;;;;5058013;28;20021;-91
2023/07/02 10:51:38;;;;;;;6.32;1.40;;;16.50;91.50;;;;;;5038118;28;20129;-91
2023/07/02 10:54:05;;;;;;;7.75;1.73;;;16.40;91.00;;;;;;5041629;28;20030;-90
2023/07/02 10:56:32;;;;;;;11.77;2.80;;;16.20;90.70;;;;;;5059041;28;20376;-90
2023/07/02 10:58:57;;;;;;;4.57;1.42;;;16.10;90.60;;;;;;5035235;28;20094;-89
2023/07/02 11:01:28;;;;;;;6.75;1.55;;;16.10;90.80;;;;;;5020547;28;20042;-89
2023/07/02 11:03:59;;;;;;;13.07;2.00;;;16.00;90.70;;;;;;5020242;28;20104;-90
2023/07/02 11:06:25;;;;;;;9.95;2.00;;;16.00;90.60;;;;;;5021099;28;20025;-89
2023/07/02 11:08:52;;;;;;;11.80;1.80;;;15.90;90.60;;;;;;5038650;28;20029;-88
2023/07/02 11:11:17;;;;;;;5.97;1.40;;;15.90;90.30;;;;;;5018906;28;20083;-88
2023/07/02 11:13:47;;;;;;;10.05;1.65;;;15.80;90.60;;;;;;5018446;28;20472;-89
2023/07/02 11:16:22;;;;;;;8.82;1.60;;;15.70;90.70;;;;;;5018386;28;20021;-89
2023/07/02 11:18:51;;;;;;;6.40;1.92;;;15.60;90.60;;;;;;5031377;28;20514;-89
2023/07/02 11:21:17;;;;;;;9.23;1.80;;;15.60;90.80;;;;;;5051061;28;20025;-90
2023/07/02 11:23:42;;;;;;;7.47;2.03;;;15.60;90.90;;;;;;5018676;28;20385;-89
2023/07/02 11:26:08;;;;;;;4.72;1.83;;;15.70;90.90;;;;;;5018475;28;20029;-87
2023/07/02 11:28:37;;;;;;;5.88;1.20;;;15.80;90.80;;;;;;5018212;28;20030;-89
2023/07/02 11:31:03;;;;;;;7.70;1.73;;;15.90;90.40;;;;;;5023941;28;20024;-90
2023/07/02 11:33:38;;;;;;;6.95;1.48;;;15.90;90.40;;;;;;5029602;28;20042;-90
2023/07/02 11:36:08;;;;;;;5.15;1.73;;;15.90;89.00;;;;;;5019147;28;20025;-90
2023/07/02 11:38:35;;;;;;;7.13;1.55;;;16.00;88.70;;;;;;5057282;28;20021;-89
2023/07/02 11:41:03;;;;;;;10.85;2.63;;;16.10;88.00;;;;;;5056407;28;20067;-89
2023/07/02 11:43:29;;;;;;;4.93;1.60;;;16.20;87.80;;;;;;5067678;28;20029;-89
2023/07/02 11:45:54;;;;;;;6.13;1.35;;;16.30;86.80;;;;;;5033745;28;20040;-89
2023/07/02 11:48:20;;;;;;;8.98;2.00;;;16.30;85.80;;;;;;5037189;28;20102;-90
2023/07/02 11:50:46;;;;;;;5.85;1.63;;;16.20;85.60;;;;;;5034161;28;20523;-90
2023/07/02 11:53:11;;;;;;;6.80;2.15;;;16.20;85.60;;;;;;5037730;28;20033;-90
2023/07/02 11:55:37;;;;;;;8.48;1.35;;;16.10;85.90;;;;;;5037648;28;20021;-89
2023/07/02 11:58:03;;;;;;;8.32;1.95;;;16.00;86.20;;;;;;5037441;28;20482;-89
2023/07/02 12:00:28;;;;;;;11.00;2.47;;;15.90;86.60;;;;;;5037259;28;20071;-91
2023/07/02 12:02:54;;;;;;;8.77;2.22;;;15.80;87.40;;;;;;5038294;28;20039;-91
2023/07/02 12:05:20;;;;;;;8.02;1.60;;;15.80;88.20;;;;;;5037344;28;20040;-90
2023/07/02 12:07:46;;;;;;;9.52;2.67;;;15.70;88.60;;;;;;5044875;28;20105;-90
2023/07/02 12:10:14;;;;;;;11.15;2.67;;;15.60;89.20;;;;;;5020940;28;20107;-89
2023/07/02 12:12:39;;;;;;;10.02;2.08;;;15.60;90.00;;;;;;5041687;28;20044;-89
2023/07/02 12:15:05;;;;;;;10.70;2.15;;;15.80;90.20;;;;;;5027342;28;20018;-88
2023/07/02 12:17:31;;;;;;;9.02;1.70;;;16.00;90.40;;;;;;5036233;28;20025;-88
2023/07/02 12:19:57;;;;;;;10.02;1.85;;;16.20;90.20;;;;;;5032412;28;20097;-88
2023/07/02 12:22:23;;;;;;;10.75;2.05;;;16.40;89.50;;;;;;5040668;28;20026;-88
2023/07/02 12:24:55;;;;;;;8.18;1.90;;;16.40;88.60;;;;;;5037041;28;20090;-90
2023/07/02 12:27:21;;;;;;;11.30;2.70;;;16.40;87.60;;;;;;5056599;28;20017;-90
2023/07/02 12:29:48;;;;;;;10.23;1.58;;;16.40;87.50;;;;;;5037466;28;20093;-90
2023/07/02 12:32:14;;;;;;;5.45;1.60;;;16.40;86.90;;;;;;5018875;28;20041;-89
2023/07/02 12:34:40;;;;;;;5.63;1.52;;;16.30;86.40;;;;;;5028711;28;20377;-89